Anvik Information

FAA: ANV - ICAO: PANV

Anvik (Airport) Location

State Alaska
County Yukon-Koyukuk
City Anvik
Anvik (Airport) is 1 mile southeast of Anvik, AK.
Latitude 62-38-50.4000N
Longitude 160-11-24.2000W
Elevation 297ft

Anvik METARs

METAR PANV 261056Z AUTO 28004KT 10SM BKN080 OVC100 12/04 A2999 RMK AO2 SLP217 T01220039 TSNO
Altimeter 29.99"
Temperature 12.2°C (54.0°F)
Wind 280° at 4KT
Clouds broken at 8,000ft overcast at 10,000ft
Visibility 10.0mi
Time observed: 2022-05-26T10:56:00Z

Anvik (Airport) Details

Status Operational
Activation June 1963
Ownership Public
Usage Public
Chart MC GRATH
ATC on-site No
Beacon schedule sunset-sunrise
Beacon color clear green

Anvik (Airport) Contacts

Owner ALASKA DOT&PF NORTHERN REGION
Owner address 2301 PEGER ROAD, FAIRBANKS, AK 99709
Owner phone 907-451-2200
Manager DAVE DOUCET
Manager address 4700 B.L. M. RD, ANCHORAGE, AK 99507
Manager phone (907) 267-1357

Anvik Radio Frequencies

Anvik (Airport) Radio Frequencies

UNICOM 122.7
Common traffic advisory frequency (CTAF) 122.7